createdAt,value
2023-09-05T00:00:58.580Z,100186.03
2023-09-05T00:06:01.669Z,100179.00
2023-09-05T00:11:03.669Z,100175.56
2023-09-05T00:16:05.865Z,100184.56
2023-09-05T00:21:07.702Z,100182.22
2023-09-05T00:26:09.695Z,100183.97
2023-09-05T00:31:11.853Z,100184.84
2023-09-05T00:36:13.724Z,100186.91
2023-09-05T00:41:15.719Z,100176.28
2023-09-05T00:46:17.994Z,100178.97
2023-09-05T00:51:20.360Z,100174.44
2023-09-05T00:56:22.427Z,100171.75
2023-09-05T01:01:24.498Z,100173.16
2023-09-05T01:06:38.662Z,100181.72
2023-09-05T01:11:41.936Z,100178.25
2023-09-05T01:16:43.855Z,100186.50
2023-09-05T01:22:07.488Z,100185.25
2023-09-05T01:27:09.715Z,100182.78
2023-09-05T01:32:11.853Z,100189.03
2023-09-05T01:37:13.943Z,100186.53
2023-09-05T01:42:16.168Z,100179.59
2023-09-05T01:47:18.234Z,100185.09
2023-09-05T01:52:20.262Z,100181.72
2023-09-05T01:57:22.374Z,100180.13
2023-09-05T02:02:24.626Z,100180.28
2023-09-05T02:07:26.660Z,100187.75
2023-09-05T02:12:28.596Z,100197.50
2023-09-05T02:17:30.852Z,100185.34
2023-09-05T02:22:33.184Z,100186.31
2023-09-05T02:27:35.190Z,100188.97
2023-09-05T02:32:37.270Z,100188.03
2023-09-05T02:37:39.455Z,100189.00
2023-09-05T02:42:41.423Z,100201.47
2023-09-05T02:47:43.657Z,100203.22
2023-09-05T02:52:48.244Z,100196.19
2023-09-05T02:57:50.978Z,100202.19
2023-09-05T03:02:52.854Z,100202.25
2023-09-05T03:07:56.702Z,100204.72
2023-09-05T03:12:58.722Z,100205.50
2023-09-05T03:18:00.869Z,100213.09
2023-09-05T03:23:02.948Z,100212.63
2023-09-05T03:28:05.383Z,100211.47
2023-09-05T03:33:07.927Z,100200.44
2023-09-05T03:38:10.083Z,100193.78
2023-09-05T03:43:12.248Z,100185.84
2023-09-05T03:48:14.296Z,100186.81
2023-09-05T03:53:16.354Z,100208.50
2023-09-05T03:58:18.327Z,100194.25
2023-09-05T04:03:20.466Z,100183.50
2023-09-05T04:08:22.696Z,100187.22
2023-09-05T04:13:24.789Z,100191.03
2023-09-05T04:18:29.771Z,100202.31
2023-09-05T04:23:31.651Z,100201.38
2023-09-05T04:28:33.339Z,100204.75
2023-09-05T04:33:35.324Z,100202.38
2023-09-05T04:38:38.193Z,100203.81
2023-09-05T04:43:40.198Z,100206.22
2023-09-05T04:48:42.141Z,100209.56
2023-09-05T04:53:43.864Z,100210.16
2023-09-05T04:58:45.782Z,100216.06
2023-09-05T05:03:47.723Z,100214.84
2023-09-05T05:08:49.759Z,100216.50
2023-09-05T05:13:51.700Z,100216.00
2023-09-05T05:18:53.652Z,100213.75
2023-09-05T05:23:55.677Z,100215.28
2023-09-05T05:28:57.748Z,100224.25
2023-09-05T05:33:59.494Z,100217.66
2023-09-05T05:39:01.498Z,100213.47
2023-09-05T05:44:03.774Z,100196.59
2023-09-05T05:49:05.911Z,100198.75
2023-09-05T05:54:08.028Z,100208.38
2023-09-05T05:59:10.017Z,100206.34
2023-09-05T06:04:12.055Z,100195.19
2023-09-05T06:09:14.057Z,100179.41
2023-09-05T06:14:16.178Z,100172.00
2023-09-05T06:19:18.254Z,100164.94
2023-09-05T06:24:20.206Z,100170.25
2023-09-05T06:29:22.179Z,100165.06
2023-09-05T06:34:24.155Z,100167.97
2023-09-05T06:39:26.130Z,100158.69
2023-09-05T06:44:32.199Z,100156.25
2023-09-05T06:49:34.117Z,100159.97
2023-09-05T06:54:36.100Z,100152.41
2023-09-05T06:59:38.043Z,100150.50
2023-09-05T07:04:40.028Z,100140.44
2023-09-05T07:09:42.058Z,100138.94
2023-09-05T07:14:45.304Z,100140.13
2023-09-05T07:19:47.633Z,100140.22
2023-09-05T07:24:49.972Z,100125.78
2023-09-05T07:29:51.937Z,100131.19
2023-09-05T07:34:55.198Z,100130.84
2023-09-05T07:39:57.171Z,100127.16
2023-09-05T07:44:59.330Z,100107.78
2023-09-05T07:50:01.257Z,100126.53
2023-09-05T07:55:03.258Z,100126.97
2023-09-05T08:00:05.743Z,100120.38
2023-09-05T08:05:08.294Z,100123.72
2023-09-05T08:10:10.402Z,100116.88
2023-09-05T08:15:12.410Z,100116.03
2023-09-05T08:20:14.359Z,100115.91
2023-09-05T08:25:16.354Z,100118.50
2023-09-05T08:30:18.458Z,100115.16
2023-09-05T08:35:20.407Z,100105.81
2023-09-05T08:40:22.369Z,100107.72
2023-09-05T08:45:24.553Z,100108.59
2023-09-05T08:50:26.489Z,100103.41
2023-09-05T08:55:28.626Z,100103.94
2023-09-05T09:00:30.534Z,100096.22
2023-09-05T09:05:32.458Z,100097.56
2023-09-05T09:10:34.417Z,100097.13
2023-09-05T09:15:40.588Z,100098.94
2023-09-05T09:20:43.926Z,100095.22
2023-09-05T09:25:49.140Z,100095.75
2023-09-05T09:30:58.483Z,100085.81
2023-09-05T09:36:11.862Z,100087.88
2023-09-05T09:41:13.894Z,100084.72
2023-09-05T09:46:16.030Z,100078.22
2023-09-05T09:51:18.166Z,100075.00
2023-09-05T09:56:20.187Z,100079.47
2023-09-05T10:01:22.297Z,100069.75
2023-09-05T10:06:24.328Z,100071.03
2023-09-05T10:11:26.298Z,100060.31
2023-09-05T10:16:28.279Z,100063.56
2023-09-05T10:21:30.370Z,100060.34
2023-09-05T10:26:32.370Z,100055.69
2023-09-05T10:31:34.363Z,100056.66
2023-09-05T10:36:43.104Z,100046.03
2023-09-05T10:41:45.243Z,100042.53
2023-09-05T10:46:53.180Z,100034.38
2023-09-05T10:52:17.040Z,100029.72
2023-09-05T10:57:38.247Z,100030.34
2023-09-05T11:02:40.478Z,100023.44
2023-09-05T11:07:42.449Z,100018.59
2023-09-05T11:12:44.339Z,100019.16
2023-09-05T11:18:05.824Z,100012.34
2023-09-05T11:23:12.231Z,100005.75
2023-09-05T11:28:14.970Z,100005.41
2023-09-05T11:33:17.354Z,100000.63
2023-09-05T11:38:20.841Z,99991.63
2023-09-05T11:43:23.024Z,99993.47
2023-09-05T11:48:26.290Z,99988.38
2023-09-05T11:53:28.515Z,99982.28
2023-09-05T11:58:31.416Z,99977.91
2023-09-05T12:03:36.832Z,99966.63
2023-09-05T12:08:40.314Z,99964.31
2023-09-05T12:13:43.298Z,99963.38
2023-09-05T12:18:47.119Z,99947.66
2023-09-05T12:23:49.691Z,99942.53
2023-09-05T12:28:54.911Z,99936.22
2023-09-05T12:33:56.961Z,99932.28
2023-09-05T12:38:58.946Z,99932.53
2023-09-05T12:44:00.933Z,99931.31
2023-09-05T12:49:02.881Z,99926.91
2023-09-05T12:54:05.034Z,99921.34
2023-09-05T12:59:07.035Z,99908.69
2023-09-05T13:04:09.046Z,99908.41
2023-09-05T13:09:11.082Z,99901.94
2023-09-05T13:14:13.114Z,99892.88
2023-09-05T13:19:15.139Z,99893.88
2023-09-05T13:24:17.034Z,99885.56
2023-09-05T13:29:18.994Z,99869.03
2023-09-05T13:34:21.173Z,99865.94
2023-09-05T13:39:23.297Z,99859.16
2023-09-05T13:44:25.576Z,99858.78
2023-09-05T13:49:27.514Z,99860.63
2023-09-05T13:54:29.452Z,99860.84
2023-09-05T13:59:31.582Z,99851.41
2023-09-05T14:04:33.759Z,99848.88
2023-09-05T14:09:35.952Z,99844.47
2023-09-05T14:14:39.274Z,99839.94
2023-09-05T14:19:41.416Z,99835.69
2023-09-05T14:24:43.610Z,99827.88
2023-09-05T14:29:45.690Z,99824.34
2023-09-05T14:34:47.684Z,99824.44
2023-09-05T14:39:49.860Z,99819.16
2023-09-05T14:44:51.875Z,99814.53
2023-09-05T14:49:53.968Z,99814.44
2023-09-05T14:54:56.183Z,99803.06
2023-09-05T14:59:58.191Z,99798.53
2023-09-05T15:05:00.128Z,99798.19
2023-09-05T15:10:02.326Z,99791.84
2023-09-05T15:15:06.560Z,99789.25
2023-09-05T15:20:09.657Z,99785.66
2023-09-05T15:25:15.731Z,99784.66
2023-09-05T15:30:18.080Z,99786.53
2023-09-05T15:35:20.208Z,99789.03
2023-09-05T15:40:22.562Z,99785.91
2023-09-05T15:45:24.679Z,99780.13
2023-09-05T15:50:26.777Z,99774.97
2023-09-05T15:55:28.891Z,99775.94
2023-09-05T16:00:31.081Z,99779.38
2023-09-05T16:05:33.283Z,99769.75
2023-09-05T16:10:35.415Z,99765.22
2023-09-05T16:15:37.537Z,99763.25
2023-09-05T16:20:53.861Z,99758.50
2023-09-05T16:25:58.317Z,99758.47
2023-09-05T16:31:00.644Z,99750.94
2023-09-05T16:36:04.150Z,99743.22
2023-09-05T16:41:09.919Z,99745.75
2023-09-05T16:46:15.411Z,99751.53
2023-09-05T16:51:19.900Z,99750.19
2023-09-05T16:56:21.933Z,99742.78
2023-09-05T17:01:23.827Z,99748.25
2023-09-05T17:06:25.870Z,99751.00
2023-09-05T17:11:30.177Z,99747.28
2023-09-05T17:16:33.501Z,99750.16
2023-09-05T17:21:35.500Z,99751.78
2023-09-05T17:26:37.597Z,99746.31
2023-09-05T17:31:39.459Z,99739.00
2023-09-05T17:36:41.554Z,99739.50
2023-09-05T17:41:43.664Z,99735.84
2023-09-05T17:46:45.693Z,99730.59
2023-09-05T17:51:47.568Z,99732.06
2023-09-05T17:56:49.749Z,99737.09
2023-09-05T18:01:52.256Z,99733.47
2023-09-05T18:06:54.366Z,99730.03
2023-09-05T18:11:56.447Z,99726.13
2023-09-05T18:16:58.340Z,99723.28
2023-09-05T18:22:00.433Z,99724.03
2023-09-05T18:27:06.933Z,99719.63
2023-09-05T18:32:09.575Z,99724.13
2023-09-05T18:37:11.298Z,99719.34
2023-09-05T18:42:13.300Z,99716.59
2023-09-05T18:47:15.409Z,99707.44
2023-09-05T18:52:17.713Z,99706.69
2023-09-05T18:57:19.961Z,99703.25
2023-09-05T19:02:21.732Z,99692.28
2023-09-05T19:07:23.817Z,99691.25
2023-09-05T19:12:25.667Z,99691.78
2023-09-05T19:17:27.578Z,99689.78
2023-09-05T19:22:29.417Z,99685.09
2023-09-05T19:27:31.498Z,99678.81
2023-09-05T19:32:33.748Z,99677.19
2023-09-05T19:37:36.084Z,99665.88
2023-09-05T19:42:38.113Z,99673.09
2023-09-05T19:47:39.969Z,99666.59
2023-09-05T19:52:42.258Z,99665.38
2023-09-05T19:57:44.218Z,99666.97
2023-09-05T20:02:46.324Z,99665.09
2023-09-05T20:07:48.442Z,99665.44
2023-09-05T20:12:50.230Z,99660.84
2023-09-05T20:17:52.504Z,99657.22
2023-09-05T20:22:54.694Z,99655.31
2023-09-05T20:27:56.799Z,99652.75
2023-09-05T20:32:58.798Z,99648.84
2023-09-05T20:38:00.741Z,99631.81
2023-09-05T20:43:02.720Z,99640.94
2023-09-05T20:48:04.816Z,99638.16
2023-09-05T20:53:06.809Z,99631.66
2023-09-05T20:58:08.906Z,99636.16
2023-09-05T21:03:10.870Z,99630.59
2023-09-05T21:08:12.959Z,99632.41
2023-09-05T21:13:14.752Z,99629.84
2023-09-05T21:18:16.639Z,99629.75
2023-09-05T21:23:18.618Z,99637.91
2023-09-05T21:28:20.531Z,99622.78
2023-09-05T21:33:22.495Z,99618.59
2023-09-05T21:38:24.494Z,99608.97
2023-09-05T21:43:26.559Z,99608.56
2023-09-05T21:48:28.634Z,99601.38
2023-09-05T21:53:30.893Z,99607.66
2023-09-05T21:58:32.958Z,99586.63
2023-09-05T22:03:34.992Z,99588.69
2023-09-05T22:08:37.140Z,99587.28
2023-09-05T22:13:38.920Z,99588.44
2023-09-05T22:18:41.335Z,99592.13
2023-09-05T22:23:43.420Z,99577.34
2023-09-05T22:28:45.467Z,99585.63
2023-09-05T22:33:47.304Z,99573.94
2023-09-05T22:38:49.382Z,99574.00
2023-09-05T22:43:51.435Z,99566.28
2023-09-05T22:48:53.558Z,99564.81
2023-09-05T22:53:55.676Z,99564.00
2023-09-05T22:58:57.565Z,99561.84
2023-09-05T23:03:59.619Z,99548.31
2023-09-05T23:09:01.456Z,99555.69
2023-09-05T23:14:03.385Z,99550.78
2023-09-05T23:19:05.559Z,99540.09
2023-09-05T23:24:07.453Z,99535.09
2023-09-05T23:29:09.471Z,99526.97
2023-09-05T23:34:11.551Z,99519.31
2023-09-05T23:39:13.842Z,99517.09
2023-09-05T23:44:15.940Z,99514.16
2023-09-05T23:49:18.035Z,99508.66
2023-09-05T23:54:19.884Z,99497.13
2023-09-05T23:59:21.821Z,99485.81
